Terminal Aerodrome Forecast
Issued by NWS Charleston, WV

Current Version | Previous Version | Graphics & Text | Print | Product List | Glossary On
Versions: 1 2 3 4 5 6 7 8 9 10 11 12 13 14 15 16 17 18 19 20 21 22
000
FTUS41 KRLX 240500 RRA
TAFHTS
TAF
KHTS 240548Z 2406/2506 01005KT 6SM BR BKN020
      TEMPO 2407/2409 3SM TSRA BR OVC015CB
     FM240900 01006KT 6SM -SHRA BR OVC015
     FM241300 36006KT 6SM BR OVC020
     FM241500 36006KT P6SM OVC030
     FM241800 34006KT P6SM BKN035
     FM242200 36006KT P6SM SCT050
     FM250100 00000KT P6SM SCT050
     FM250500 00000KT P6SM SCT150=

USA.gov is the U.S. government's official web portal to all federal, state and local government web resources and services.